Time,TemperatureF,DewpointF,PressureIn,WindDirection,WindDirectionDegrees,WindSpeedMPH,WindSpeedGustMPH,Humidity,HourlyPrecipIn,Conditions,Clouds,dailyrainin,SoftwareType,DateUTC
2013-05-29 00:01:00,46.0,43.0,29.68,SW,218,0.0,4.0,90,0.04,,,0.07,,2013-05-29 07:01:00,
2013-05-29 00:11:00,46.0,43.0,29.68,SW,218,0.0,4.0,90,0.04,,,0.07,,2013-05-29 07:11:00,
2013-05-29 00:21:00,45.0,43.0,29.67,SW,218,1.0,3.0,91,0.05,,,0.08,,2013-05-29 07:21:00,
2013-05-29 00:42:00,45.0,43.0,29.67,WSW,240,2.0,6.0,92,0.04,,,0.06,,2013-05-29 07:42:00,
2013-05-29 00:52:00,45.0,43.0,29.67,WSW,249,1.0,3.0,92,0.03,,,0.06,,2013-05-29 07:52:00,
2013-05-29 01:02:00,45.0,43.0,29.67,WSW,249,1.0,4.0,93,0.03,,,0.08,,2013-05-29 08:02:00,
2013-05-29 01:11:00,45.0,43.0,29.67,WSW,249,1.0,4.0,93,0.03,,,0.08,,2013-05-29 08:11:00,
2013-05-29 01:21:00,45.0,43.0,29.66,WSW,249,0.0,3.0,93,0.03,,,0.09,,2013-05-29 08:21:00,
2013-05-29 01:31:00,45.0,43.0,29.66,WSW,249,1.0,3.0,93,0.04,,,0.10,,2013-05-29 08:31:00,
2013-05-29 01:41:00,45.0,43.0,29.66,WSW,249,1.0,3.0,93,0.04,,,0.10,,2013-05-29 08:41:00,
2013-05-29 01:52:00,45.0,43.0,29.66,WSW,249,2.0,6.0,94,0.04,,,0.10,,2013-05-29 08:52:00,
2013-05-29 02:01:00,45.0,43.0,29.66,WSW,237,3.0,6.0,94,0.04,,,0.12,,2013-05-29 09:01:00,
2013-05-29 02:11:00,45.0,43.0,29.66,WSW,237,3.0,6.0,94,0.04,,,0.12,,2013-05-29 09:11:00,
2013-05-29 02:21:00,45.0,43.0,29.65,SW,232,3.0,10.0,92,0.03,,,0.12,,2013-05-29 09:21:00,
2013-05-29 02:32:00,45.0,43.0,29.65,WSW,246,4.0,7.0,92,0.02,,,0.12,,2013-05-29 09:32:00,
2013-05-29 02:42:00,45.0,43.0,29.65,WSW,246,4.0,7.0,92,0.02,,,0.12,,2013-05-29 09:42:00,
2013-05-29 02:52:00,45.0,43.0,29.65,SW,224,5.0,8.0,92,0.03,,,0.13,,2013-05-29 09:52:00,
2013-05-29 03:02:00,44.0,42.0,29.64,SW,215,6.0,10.0,92,0.01,,,0.13,,2013-05-29 10:02:00,
2013-05-29 03:12:00,44.0,42.0,29.64,SW,215,6.0,10.0,92,0.01,,,0.13,,2013-05-29 10:12:00,
2013-05-29 03:22:00,44.0,42.0,29.64,South,184,6.0,11.0,92,0.01,,,0.13,,2013-05-29 10:22:00,
2013-05-29 03:32:00,44.0,42.0,29.63,SW,228,6.0,15.0,92,0.02,,,0.14,,2013-05-29 10:32:00,
2013-05-29 03:42:00,44.0,42.0,29.63,SW,228,6.0,15.0,92,0.02,,,0.14,,2013-05-29 10:42:00,
2013-05-29 03:53:00,44.0,42.0,29.63,SW,230,5.0,12.0,92,0.01,,,0.14,,2013-05-29 10:53:00,
2013-05-29 04:02:00,44.0,42.0,29.63,WSW,240,3.0,8.0,92,0.01,,,0.14,,2013-05-29 11:02:00,
2013-05-29 04:11:00,44.0,42.0,29.63,WSW,240,3.0,8.0,92,0.01,,,0.14,,2013-05-29 11:11:00,
2013-05-29 04:21:00,43.0,41.0,29.62,SW,219,4.0,7.0,93,0.01,,,0.14,,2013-05-29 11:21:00,
2013-05-29 04:32:00,44.0,42.0,29.62,WSW,238,6.0,11.0,92,0.00,,,0.14,,2013-05-29 11:32:00,
2013-05-29 04:41:00,44.0,42.0,29.62,WSW,238,6.0,11.0,92,0.00,,,0.14,,2013-05-29 11:41:00,
2013-05-29 04:52:00,43.0,41.0,29.62,SW,221,5.0,11.0,92,0.00,,,0.14,,2013-05-29 11:52:00,
2013-05-29 05:01:00,43.0,41.0,29.63,SW,215,5.0,10.0,93,0.00,,,0.14,,2013-05-29 12:01:00,
2013-05-29 05:11:00,43.0,41.0,29.63,SW,215,5.0,10.0,93,0.00,,,0.14,,2013-05-29 12:11:00,
2013-05-29 05:21:00,43.0,41.0,29.63,SW,220,7.0,14.0,91,0.00,,,0.14,,2013-05-29 12:21:00,
2013-05-29 05:31:00,43.0,40.0,29.64,WSW,248,5.0,10.0,90,0.00,,,0.14,,2013-05-29 12:31:00,
2013-05-29 05:41:00,43.0,40.0,29.64,WSW,248,5.0,10.0,90,0.00,,,0.14,,2013-05-29 12:41:00,
2013-05-29 05:52:00,42.0,38.0,29.65,WSW,247,6.0,15.0,85,0.00,,,0.14,,2013-05-29 12:52:00,
2013-05-29 06:01:00,42.0,38.0,29.66,SW,226,4.0,12.0,87,0.00,,,0.14,,2013-05-29 13:01:00,
2013-05-29 06:11:00,42.0,38.0,29.66,SW,226,4.0,12.0,87,0.00,,,0.14,,2013-05-29 13:11:00,
2013-05-29 06:21:00,42.0,38.0,29.65,SW,216,4.0,12.0,85,0.00,,,0.14,,2013-05-29 13:21:00,
2013-05-29 06:31:00,41.0,37.0,29.65,SSW,205,5.0,10.0,87,0.00,,,0.14,,2013-05-29 13:31:00,
2013-05-29 06:42:00,41.0,37.0,29.65,SSW,205,5.0,10.0,87,0.00,,,0.14,,2013-05-29 13:42:00,
2013-05-29 06:53:00,41.0,37.0,29.66,WSW,238,5.0,10.0,86,0.00,,,0.14,,2013-05-29 13:53:00,
2013-05-29 07:01:00,41.0,37.0,29.65,SSW,205,4.0,10.0,86,0.00,,,0.14,,2013-05-29 14:01:00,
2013-05-29 07:11:00,41.0,37.0,29.65,SSW,205,4.0,10.0,86,0.00,,,0.14,,2013-05-29 14:11:00,
2013-05-29 07:21:00,43.0,38.0,29.66,SW,221,9.0,17.0,83,0.00,,,0.13,,2013-05-29 14:21:00,
2013-05-29 07:32:00,43.0,38.0,29.65,South,185,6.0,17.0,83,0.00,,,0.13,,2013-05-29 14:32:00,
2013-05-29 07:41:00,43.0,38.0,29.65,South,185,6.0,17.0,83,0.00,,,0.13,,2013-05-29 14:41:00,
2013-05-29 07:52:00,43.0,38.0,29.65,South,190,9.0,15.0,82,0.00,,,0.13,,2013-05-29 14:52:00,
2013-05-29 08:01:00,44.0,38.0,29.65,SW,219,8.0,18.0,80,0.00,,,0.13,,2013-05-29 15:01:00,
2013-05-29 08:11:00,44.0,38.0,29.65,SW,219,8.0,18.0,80,0.00,,,0.13,,2013-05-29 15:11:00,
2013-05-29 08:21:00,45.0,39.0,29.66,SW,216,6.0,18.0,80,0.00,,,0.13,,2013-05-29 15:21:00,
2013-05-29 08:32:00,45.0,39.0,29.67,WSW,250,6.0,13.0,80,0.00,,,0.13,,2013-05-29 15:32:00,
2013-05-29 08:42:00,45.0,39.0,29.67,WSW,250,6.0,13.0,80,0.00,,,0.13,,2013-05-29 15:42:00,
2013-05-29 08:53:00,46.0,40.0,29.68,SW,232,8.0,18.0,78,0.00,,,0.13,,2013-05-29 15:53:00,
2013-05-29 09:03:00,47.0,40.0,29.68,SW,226,9.0,26.0,76,0.00,,,0.13,,2013-05-29 16:03:00,
2013-05-29 09:12:00,47.0,40.0,29.68,SW,226,9.0,26.0,76,0.00,,,0.13,,2013-05-29 16:12:00,
2013-05-29 09:22:00,48.0,40.0,29.69,SW,224,9.0,27.0,73,0.00,,,0.13,,2013-05-29 16:22:00,
2013-05-29 09:32:00,49.0,39.0,29.70,WSW,238,14.0,22.0,69,0.00,,,0.13,,2013-05-29 16:32:00,
2013-05-29 09:42:00,49.0,39.0,29.70,WSW,238,14.0,22.0,69,0.00,,,0.13,,2013-05-29 16:42:00,
2013-05-29 09:52:00,48.0,38.0,29.70,West,260,16.0,30.0,69,0.00,,,0.13,,2013-05-29 16:52:00,
2013-05-29 10:02:00,48.0,39.0,29.70,WNW,296,15.0,27.0,72,0.00,,,0.13,,2013-05-29 17:02:00,
2013-05-29 10:12:00,48.0,39.0,29.70,WNW,296,15.0,27.0,72,0.00,,,0.13,,2013-05-29 17:12:00,
2013-05-29 10:22:00,48.0,38.0,29.71,WSW,243,14.0,30.0,68,0.00,,,0.13,,2013-05-29 17:22:00,
2013-05-29 10:32:00,49.0,39.0,29.71,West,280,12.0,28.0,67,0.00,,,0.13,,2013-05-29 17:32:00,
2013-05-29 10:42:00,49.0,39.0,29.71,West,280,12.0,28.0,67,0.00,,,0.13,,2013-05-29 17:42:00,
2013-05-29 10:52:00,49.0,39.0,29.71,SW,228,8.0,28.0,68,0.00,,,0.13,,2013-05-29 17:52:00,
2013-05-29 11:01:00,49.0,38.0,29.72,West,272,16.0,31.0,65,0.00,,,0.13,,2013-05-29 18:01:00,
2013-05-29 11:13:00,49.0,38.0,29.72,West,272,16.0,31.0,65,0.00,,,0.13,,2013-05-29 18:13:00,
2013-05-29 11:22:00,49.0,37.0,29.73,WNW,290,16.0,29.0,63,0.00,,,0.13,,2013-05-29 18:22:00,
2013-05-29 11:32:00,50.0,39.0,29.74,West,259,9.0,20.0,65,0.00,,,0.13,,2013-05-29 18:32:00,
2013-05-29 11:41:00,50.0,39.0,29.74,West,259,9.0,20.0,65,0.00,,,0.13,,2013-05-29 18:41:00,
2013-05-29 11:52:00,50.0,38.0,29.75,West,273,8.0,20.0,64,0.00,,,0.13,,2013-05-29 18:52:00,
2013-05-29 12:01:00,50.0,37.0,29.76,SSW,198,13.0,24.0,61,0.00,,,0.13,,2013-05-29 19:01:00,
2013-05-29 12:11:00,50.0,37.0,29.76,SSW,198,13.0,24.0,61,0.00,,,0.13,,2013-05-29 19:11:00,
2013-05-29 12:21:00,51.0,38.0,29.77,WNW,289,15.0,26.0,60,0.00,,,0.13,,2013-05-29 19:21:00,
2013-05-29 12:32:00,51.0,38.0,29.77,West,273,11.0,23.0,61,0.00,,,0.13,,2013-05-29 19:32:00,
2013-05-29 12:44:00,51.0,38.0,29.77,West,273,11.0,23.0,61,0.00,,,0.13,,2013-05-29 19:44:00,
2013-05-29 12:53:00,51.0,38.0,29.77,WNW,291,11.0,19.0,61,0.00,,,0.13,,2013-05-29 19:53:00,
2013-05-29 13:02:00,52.0,39.0,29.77,SW,219,10.0,21.0,61,0.00,,,0.13,,2013-05-29 20:02:00,
2013-05-29 13:11:00,52.0,39.0,29.77,SW,219,10.0,21.0,61,0.00,,,0.13,,2013-05-29 20:11:00,
2013-05-29 13:22:00,52.0,38.0,29.78,South,190,12.0,24.0,59,0.00,,,0.13,,2013-05-29 20:22:00,
2013-05-29 13:32:00,52.0,40.0,29.79,WSW,244,8.0,21.0,64,0.00,,,0.13,,2013-05-29 20:32:00,
2013-05-29 13:42:00,52.0,40.0,29.79,WSW,244,8.0,21.0,64,0.00,,,0.13,,2013-05-29 20:42:00,
2013-05-29 13:52:00,51.0,39.0,29.80,West,267,10.0,22.0,64,0.00,,,0.13,,2013-05-29 20:52:00,
2013-05-29 14:02:00,51.0,38.0,29.79,WSW,248,12.0,21.0,60,0.00,,,0.13,,2013-05-29 21:02:00,
2013-05-29 14:12:00,51.0,38.0,29.79,WSW,248,12.0,21.0,60,0.00,,,0.13,,2013-05-29 21:12:00,
2013-05-29 14:22:00,51.0,40.0,29.80,SW,222,8.0,17.0,66,0.00,,,0.13,,2013-05-29 21:22:00,
2013-05-29 14:33:00,51.0,39.0,29.80,WSW,254,8.0,18.0,64,0.00,,,0.13,,2013-05-29 21:33:00,
2013-05-29 14:43:00,51.0,39.0,29.80,WSW,254,8.0,18.0,64,0.00,,,0.13,,2013-05-29 21:43:00,
2013-05-29 14:53:00,52.0,39.0,29.80,NNW,341,4.0,17.0,60,0.00,,,0.13,,2013-05-29 21:53:00,
2013-05-29 15:03:00,52.0,39.0,29.81,SW,216,8.0,23.0,60,0.00,,,0.13,,2013-05-29 22:03:00,
2013-05-29 15:12:00,52.0,39.0,29.81,SW,216,8.0,23.0,60,0.00,,,0.13,,2013-05-29 22:12:00,
2013-05-29 15:23:00,50.0,43.0,29.82,WNW,288,8.0,19.0,76,0.00,,,0.13,,2013-05-29 22:23:00,
2013-05-29 15:33:00,49.0,42.0,29.82,West,269,2.0,12.0,76,0.00,,,0.13,,2013-05-29 22:33:00,
2013-05-29 15:42:00,49.0,42.0,29.82,West,269,2.0,12.0,76,0.00,,,0.13,,2013-05-29 22:42:00,
2013-05-29 15:53:00,52.0,39.0,29.82,WSW,255,7.0,22.0,61,0.00,,,0.13,,2013-05-29 22:53:00,
2013-05-29 16:02:00,52.0,37.0,29.82,West,261,9.0,20.0,56,0.00,,,0.13,,2013-05-29 23:02:00,
2013-05-29 16:12:00,52.0,37.0,29.82,West,261,9.0,20.0,56,0.00,,,0.13,,2013-05-29 23:12:00,
2013-05-29 16:21:00,51.0,38.0,29.82,West,277,7.0,20.0,61,0.00,,,0.13,,2013-05-29 23:21:00,
2013-05-29 16:33:00,51.0,38.0,29.82,West,272,6.0,16.0,61,0.00,,,0.13,,2013-05-29 23:33:00,
2013-05-29 16:42:00,51.0,38.0,29.82,West,272,6.0,16.0,61,0.00,,,0.13,,2013-05-29 23:42:00,
2013-05-29 16:53:00,52.0,37.0,29.82,SSW,209,4.0,11.0,57,0.00,,,0.13,,2013-05-29 23:53:00,
2013-05-29 17:01:00,52.0,39.0,29.83,WSW,246,9.0,21.0,60,0.00,,,0.13,,2013-05-30 00:01:00,
2013-05-29 17:11:00,52.0,39.0,29.83,WSW,246,9.0,21.0,60,0.00,,,0.13,,2013-05-30 00:11:00,
2013-05-29 17:21:00,52.0,39.0,29.83,WSW,243,5.0,20.0,62,0.00,,,0.13,,2013-05-30 00:21:00,
2013-05-29 17:31:00,52.0,39.0,29.83,West,279,4.0,19.0,60,0.00,,,0.13,,2013-05-30 00:31:00,
2013-05-29 17:41:00,52.0,39.0,29.83,West,279,4.0,19.0,60,0.00,,,0.13,,2013-05-30 00:41:00,
2013-05-29 17:52:00,53.0,39.0,29.84,SW,230,3.0,8.0,58,0.00,,,0.13,,2013-05-30 00:52:00,
2013-05-29 18:01:00,50.0,37.0,29.83,SW,226,10.0,17.0,61,0.00,,,0.13,,2013-05-30 01:01:00,
2013-05-29 18:11:00,50.0,37.0,29.83,SW,226,10.0,17.0,61,0.00,,,0.13,,2013-05-30 01:11:00,
2013-05-29 18:21:00,50.0,38.0,29.83,WNW,300,3.0,12.0,64,0.00,,,0.13,,2013-05-30 01:21:00,
2013-05-29 18:31:00,50.0,39.0,29.83,ENE,69,6.0,14.0,65,0.00,,,0.13,,2013-05-30 01:31:00,
2013-05-29 18:41:00,50.0,39.0,29.83,ENE,69,6.0,14.0,65,0.00,,,0.13,,2013-05-30 01:41:00,
2013-05-29 18:52:00,49.0,38.0,29.84,WSW,255,4.0,17.0,65,0.00,,,0.13,,2013-05-30 01:52:00,
2013-05-29 19:01:00,48.0,38.0,29.85,WNW,294,2.0,19.0,67,0.00,,,0.13,,2013-05-30 02:01:00,
2013-05-29 19:11:00,48.0,38.0,29.85,WNW,294,2.0,19.0,67,0.00,,,0.13,,2013-05-30 02:11:00,
2013-05-29 19:21:00,48.0,38.0,29.85,SSW,193,4.0,7.0,67,0.00,,,0.13,,2013-05-30 02:21:00,
2013-05-29 19:31:00,47.0,38.0,29.85,SSW,213,11.0,19.0,70,0.00,,,0.13,,2013-05-30 02:31:00,
2013-05-29 19:42:00,47.0,38.0,29.85,SSW,213,11.0,19.0,70,0.00,,,0.13,,2013-05-30 02:42:00,
2013-05-29 19:52:00,47.0,38.0,29.85,SSW,213,11.0,19.0,70,0.00,,,0.13,,2013-05-30 02:52:00,
2013-05-29 20:01:00,45.0,39.0,29.87,WNW,288,6.0,9.0,78,0.01,,,0.14,,2013-05-30 03:01:00,
2013-05-29 20:11:00,45.0,39.0,29.88,SW,219,6.0,12.0,78,0.01,,,0.14,,2013-05-30 03:11:00,
2013-05-29 20:21:00,45.0,39.0,29.88,SW,219,6.0,12.0,78,0.01,,,0.14,,2013-05-30 03:21:00,
2013-05-29 20:32:00,45.0,39.0,29.88,SW,231,6.0,14.0,78,0.01,,,0.14,,2013-05-30 03:32:00,
2013-05-29 20:43:00,45.0,39.0,29.88,SW,231,6.0,14.0,78,0.01,,,0.14,,2013-05-30 03:43:00,
2013-05-29 20:53:00,44.0,37.0,29.88,West,259,6.0,16.0,77,0.01,,,0.14,,2013-05-30 03:53:00,
2013-05-29 21:02:00,44.0,37.0,29.89,West,265,5.0,10.0,77,0.00,,,0.14,,2013-05-30 04:02:00,
2013-05-29 21:12:00,44.0,37.0,29.89,West,265,5.0,10.0,77,0.00,,,0.14,,2013-05-30 04:12:00,
2013-05-29 21:23:00,43.0,37.0,29.89,SSW,202,6.0,11.0,79,0.00,,,0.14,,2013-05-30 04:23:00,
2013-05-29 21:32:00,43.0,37.0,29.89,SSW,202,6.0,11.0,79,0.00,,,0.14,,2013-05-30 04:32:00,
2013-05-29 21:42:00,43.0,37.0,29.89,SSW,202,6.0,11.0,79,0.00,,,0.14,,2013-05-30 04:42:00,
2013-05-29 21:53:00,42.0,37.0,29.91,WSW,240,3.0,10.0,81,0.00,,,0.14,,2013-05-30 04:53:00,
2013-05-29 22:02:00,41.0,36.0,29.92,SW,221,2.0,7.0,82,0.00,,,0.14,,2013-05-30 05:02:00,
2013-05-29 22:12:00,41.0,36.0,29.92,SW,221,2.0,7.0,82,0.00,,,0.14,,2013-05-30 05:12:00,
2013-05-29 22:21:00,41.0,37.0,29.92,West,269,3.0,8.0,84,0.00,,,0.14,,2013-05-30 05:21:00,
2013-05-29 22:32:00,41.0,37.0,29.92,West,269,3.0,8.0,84,0.00,,,0.14,,2013-05-30 05:32:00,
2013-05-29 22:42:00,41.0,37.0,29.92,West,269,3.0,8.0,84,0.00,,,0.14,,2013-05-30 05:42:00,
2013-05-29 22:52:00,41.0,37.0,29.93,SSW,213,3.0,9.0,84,0.00,,,0.14,,2013-05-30 05:52:00,
2013-05-29 23:01:00,41.0,36.0,29.93,SW,214,4.0,9.0,81,0.00,,,0.14,,2013-05-30 06:01:00,
2013-05-29 23:12:00,41.0,36.0,29.93,SW,214,4.0,9.0,81,0.00,,,0.14,,2013-05-30 06:12:00,
2013-05-29 23:21:00,41.0,36.0,29.94,SW,215,4.0,7.0,81,0.00,,,0.14,,2013-05-30 06:21:00,
2013-05-29 23:32:00,41.0,36.0,29.95,SSW,212,3.0,7.0,81,0.00,,,0.14,,2013-05-30 06:32:00,
2013-05-29 23:41:00,41.0,36.0,29.95,SSW,212,3.0,7.0,81,0.00,,,0.14,,2013-05-30 06:41:00,
2013-05-29 23:52:00,40.0,35.0,29.95,South,189,2.0,10.0,83,0.00,,,0.14,,2013-05-30 06:52:00,